Time;durP1;ratioP1;P1;durP2;ratioP2;P2;SDS_P1;SDS_P2;PMS_P1;PMS_P2;Temp;Humidity;BMP_temperature;BMP_pressure;BME280_temperature;BME280_humidity;BME280_pressure;Samples;Min_cycle;Max_cycle;Signal;HPM_P1;HPM_P2
2021/01/24 00:00:26;;;;;;;11.00;7.18;;;;;;;0.42;90.44;94216.84;5093037;28;20384;-74
2021/01/24 00:02:52;;;;;;;8.60;6.38;;;;;;;0.44;90.57;94214.06;5093603;28;20155;-73
2021/01/24 00:05:19;;;;;;;9.05;7.15;;;;;;;0.47;90.04;94214.44;5092130;28;20040;-74
2021/01/24 00:07:45;;;;;;;9.45;6.90;;;;;;;0.51;90.12;94218.16;5091705;28;20052;-74
2021/01/24 00:10:13;;;;;;;10.23;7.53;;;;;;;0.54;90.01;94225.47;5092488;28;20048;-74
2021/01/24 00:12:40;;;;;;;10.32;7.40;;;;;;;0.53;89.83;94220.53;5092022;28;20054;-74
2021/01/24 00:15:07;;;;;;;10.15;7.90;;;;;;;0.53;89.73;94229.06;5091923;28;20056;-74
2021/01/24 00:17:34;;;;;;;9.60;6.85;;;;;;;0.53;89.72;94223.91;5092836;28;20051;-74
2021/01/24 00:20:00;;;;;;;9.43;7.20;;;;;;;0.57;89.78;94224.28;5093389;28;20412;-74
2021/01/24 00:22:28;;;;;;;7.03;5.90;;;;;;;0.60;89.66;94223.84;5097397;28;20032;-74
2021/01/24 00:24:55;;;;;;;9.23;6.22;;;;;;;0.64;89.59;94219.06;5095688;28;20048;-74
2021/01/24 00:27:21;;;;;;;7.43;6.00;;;;;;;0.68;89.57;94220.22;5095912;28;20416;-74
2021/01/24 00:29:48;;;;;;;7.18;5.85;;;;;;;0.72;89.54;94218.81;5096861;28;20048;-74
2021/01/24 00:32:14;;;;;;;7.43;6.30;;;;;;;0.75;89.35;94219.16;5096249;28;20067;-74
2021/01/24 00:34:42;;;;;;;8.40;6.03;;;;;;;0.80;89.22;94214.16;5096707;28;20039;-73
2021/01/24 00:37:08;;;;;;;9.77;5.78;;;;;;;0.83;89.27;94219.91;5096121;28;20396;-74
2021/01/24 00:39:34;;;;;;;7.57;5.95;;;;;;;0.82;89.18;94216.53;5077900;28;20044;-74
2021/01/24 00:42:01;;;;;;;7.10;5.93;;;;;;;0.82;89.30;94224.28;5096758;28;20036;-74
2021/01/24 00:44:27;;;;;;;7.22;5.68;;;;;;;0.81;89.17;94218.31;5077958;28;20048;-74
2021/01/24 00:46:53;;;;;;;8.50;5.82;;;;;;;0.84;89.17;94224.84;5096461;28;20028;-74
2021/01/24 00:49:19;;;;;;;6.88;5.55;;;;;;;0.86;89.12;94229.78;5095750;28;20511;-74
2021/01/24 00:51:45;;;;;;;8.10;5.95;;;;;;;0.88;89.07;94235.53;5078485;28;20031;-74
2021/01/24 00:54:12;;;;;;;9.07;5.20;;;;;;;0.90;88.97;94236.88;5095600;28;20427;-74
2021/01/24 00:56:38;;;;;;;7.78;6.00;;;;;;;0.89;89.01;94237.91;5095542;28;20048;-74
2021/01/24 00:59:04;;;;;;;6.78;4.85;;;;;;;0.89;89.05;94243.06;5095517;28;20048;-74
2021/01/24 01:01:31;;;;;;;6.32;5.00;;;;;;;0.92;88.96;94245.19;5078043;28;20388;-74
2021/01/24 01:03:57;;;;;;;6.72;4.95;;;;;;;0.90;89.02;94236.88;5095113;28;20052;-74
2021/01/24 01:06:23;;;;;;;6.13;4.80;;;;;;;0.88;88.81;94236.31;5095095;28;20044;-74
2021/01/24 01:08:49;;;;;;;5.45;4.50;;;;;;;0.87;89.00;94233.97;5095895;28;20464;-74
2021/01/24 01:11:16;;;;;;;5.68;4.70;;;;;;;0.84;88.95;94232.59;5078083;28;20032;-74
2021/01/24 01:13:42;;;;;;;6.70;5.22;;;;;;;0.81;88.94;94233.00;5096112;28;20388;-74
2021/01/24 01:16:08;;;;;;;5.45;4.18;;;;;;;0.80;89.04;94237.38;5095902;28;20028;-74
2021/01/24 01:18:34;;;;;;;5.80;4.90;;;;;;;0.82;89.04;94237.19;5094896;28;20412;-74
2021/01/24 01:21:01;;;;;;;5.40;4.22;;;;;;;0.84;88.95;94239.53;5095477;28;20369;-73
2021/01/24 01:23:27;;;;;;;4.95;4.00;;;;;;;0.83;88.71;94245.69;5094871;28;20040;-74
2021/01/24 01:25:54;;;;;;;3.58;3.17;;;;;;;0.80;88.86;94241.75;5095221;28;20044;-74
2021/01/24 01:28:23;;;;;;;2.80;2.47;;;;;;;0.76;88.76;94243.97;5095706;28;20047;-74
2021/01/24 01:30:50;;;;;;;2.83;2.15;;;;;;;0.72;89.02;94245.38;5095692;28;20481;-74
2021/01/24 01:33:16;;;;;;;2.67;2.00;;;;;;;0.73;89.13;94252.09;5094726;28;20051;-74
2021/01/24 01:35:43;;;;;;;2.10;1.90;;;;;;;0.76;89.31;94248.34;5094887;28;20040;-74
2021/01/24 01:38:09;;;;;;;1.40;1.30;;;;;;;0.77;89.34;94249.91;5094386;28;20043;-74
2021/01/24 01:40:36;;;;;;;1.27;0.85;;;;;;;0.80;89.36;94255.44;5094401;28;20399;-74
2021/01/24 01:43:02;;;;;;;0.90;0.90;;;;;;;0.78;89.50;94249.69;5095905;28;20024;-74
2021/01/24 01:45:28;;;;;;;0.80;0.80;;;;;;;0.80;89.56;94255.44;5095206;28;20032;-74
2021/01/24 01:47:56;;;;;;;1.15;0.93;;;;;;;0.83;89.47;94256.81;5095527;28;20031;-74
2021/01/24 01:50:23;;;;;;;1.73;0.95;;;;;;;0.80;89.71;94262.41;5095288;28;20388;-74
2021/01/24 01:52:49;;;;;;;0.68;0.68;;;;;;;0.78;89.73;94269.56;5094727;28;20061;-74
2021/01/24 01:55:15;;;;;;;0.93;0.88;;;;;;;0.75;89.64;94272.53;5095246;28;20032;-74
2021/01/24 01:57:41;;;;;;;0.70;0.60;;;;;;;0.73;89.94;94310.66;5094206;28;20063;-74
2021/01/24 02:00:09;;;;;;;4.38;0.93;;;;;;;0.66;89.80;94291.88;5094466;28;20063;-74
2021/01/24 02:03:03;;;;;;;0.30;0.30;;;;;;;0.53;89.94;94301.25;5094848;28;20044;-74
2021/01/24 02:05:45;;;;;;;0.52;0.52;;;;;;;0.42;90.32;94299.38;5086511;28;20028;-74
2021/01/24 02:08:17;;;;;;;0.30;0.30;;;;;;;0.39;89.52;94307.50;5095080;28;20040;-74
2021/01/24 02:10:52;;;;;;;0.30;0.30;;;;;;;0.39;89.60;94313.44;5093752;28;20051;-73
2021/01/24 02:13:47;;;;;;;0.20;0.20;;;;;;;0.38;89.61;94311.88;5095097;28;20380;-74
2021/01/24 02:16:15;;;;;;;0.55;0.30;;;;;;;0.37;89.11;94312.84;5095014;28;20036;-74
2021/01/24 02:18:45;;;;;;;0.20;0.20;;;;;;;0.37;88.93;94323.16;5095030;28;20048;-74
2021/01/24 02:21:18;;;;;;;0.40;0.30;;;;;;;0.36;88.81;94310.50;5093554;28;20058;-74
2021/01/24 02:23:46;;;;;;;0.40;0.40;;;;;;;0.35;88.50;94319.22;5093323;28;20036;-74
2021/01/24 02:26:26;;;;;;;0.40;0.40;;;;;;;0.34;87.90;94325.38;5094135;28;20040;-74
2021/01/24 02:28:58;;;;;;;0.47;0.40;;;;;;;0.31;87.49;94323.97;5094724;28;20472;-74
2021/01/24 02:31:27;;;;;;;0.32;0.32;;;;;;;0.30;87.61;94348.19;5078362;28;20040;-73
2021/01/24 02:33:55;;;;;;;0.60;0.52;;;;;;;0.29;87.58;94356.13;5093826;28;20048;-73
2021/01/24 02:36:22;;;;;;;0.63;0.50;;;;;;;0.27;87.23;94355.53;5094178;28;20036;-74
2021/01/24 02:38:48;;;;;;;2.10;0.82;;;;;;;0.29;87.64;94350.97;5093353;28;20395;-74
2021/01/24 02:41:16;;;;;;;0.60;0.60;;;;;;;0.29;87.44;94358.69;5093683;28;20039;-74
2021/01/24 02:43:44;;;;;;;0.77;0.77;;;;;;;0.27;87.35;94371.00;5092511;28;20503;-74
2021/01/24 02:46:14;;;;;;;0.80;0.80;;;;;;;0.23;86.49;94359.53;5093352;28;20492;-74
2021/01/24 02:48:45;;;;;;;1.92;1.35;;;;;;;0.20;86.69;94363.31;5093599;28;20044;-74
2021/01/24 02:51:13;;;;;;;1.23;1.13;;;;;;;0.19;86.46;94380.56;5094022;28;20048;-74
2021/01/24 02:53:41;;;;;;;1.30;1.20;;;;;;;0.17;85.97;94392.06;5075523;28;20044;-74
2021/01/24 02:56:08;;;;;;;1.65;1.30;;;;;;;0.15;86.04;94400.00;5094614;28;20039;-73
2021/01/24 02:58:34;;;;;;;1.38;1.27;;;;;;;0.15;86.10;94406.94;5093382;28;20416;-73
2021/01/24 03:01:01;;;;;;;2.25;2.05;;;;;;;0.14;86.30;94413.88;5094095;28;20043;-74
2021/01/24 03:03:27;;;;;;;1.55;1.20;;;;;;;0.12;86.36;94426.16;5093737;28;20032;-74
2021/01/24 03:05:53;;;;;;;1.40;1.30;;;;;;;0.11;86.52;94424.59;5093939;28;20051;-74
2021/01/24 03:08:20;;;;;;;1.90;1.33;;;;;;;0.12;86.74;94440.84;5093268;28;20396;-74
2021/01/24 03:10:47;;;;;;;2.25;1.33;;;;;;;0.09;86.51;94449.78;5093998;28;20051;-74
2021/01/24 03:13:23;;;;;;;2.55;1.65;;;;;;;0.07;86.57;94462.06;5092981;28;20393;-74
2021/01/24 03:15:51;;;;;;;3.13;1.90;;;;;;;0.06;86.28;94464.84;5093646;28;20028;-74
2021/01/24 03:18:24;;;;;;;2.40;1.90;;;;;;;0.07;86.58;94472.38;5092889;28;20048;-74
2021/01/24 03:20:52;;;;;;;3.70;2.25;;;;;;;0.07;86.76;94481.91;5083761;28;20059;-74
2021/01/24 03:23:21;;;;;;;2.78;1.80;;;;;;;0.08;86.48;94488.63;5093449;28;20044;-73
2021/01/24 03:25:48;;;;;;;2.58;2.22;;;;;;;0.06;86.44;94496.53;5093627;28;20416;-74
2021/01/24 03:28:16;;;;;;;4.53;2.20;;;;;;;0.03;86.07;94496.16;5093087;28;20091;-74
2021/01/24 03:30:42;;;;;;;3.22;2.35;;;;;;;-0.01;86.68;94503.50;5092142;28;20059;-73
2021/01/24 03:33:09;;;;;;;3.13;2.30;;;;;;;-0.03;86.53;94516.56;5092027;28;20511;-74
2021/01/24 03:35:36;;;;;;;3.92;2.33;;;;;;;-0.03;86.57;94515.78;5092673;28;20048;-74
2021/01/24 03:38:02;;;;;;;6.82;2.40;;;;;;;0.01;86.97;94513.63;5092058;28;20468;-74
2021/01/24 03:40:28;;;;;;;2.92;2.33;;;;;;;-0.02;85.96;94514.81;5093071;28;20048;-74
2021/01/24 03:42:55;;;;;;;3.03;2.50;;;;;;;0.00;85.70;94528.28;5093288;28;20044;-74
2021/01/24 03:45:21;;;;;;;4.70;2.78;;;;;;;-0.04;85.02;94527.88;5092584;28;20404;-74
2021/01/24 03:47:47;;;;;;;4.80;2.67;;;;;;;-0.06;83.78;94541.97;5093150;28;20044;-74
2021/01/24 03:50:13;;;;;;;3.30;2.70;;;;;;;-0.06;84.08;94547.13;5074609;28;20048;-74
2021/01/24 03:52:39;;;;;;;5.90;2.75;;;;;;;-0.13;82.82;94562.53;5075063;28;20047;-74
2021/01/24 03:55:06;;;;;;;3.55;2.70;;;;;;;-0.18;82.83;94561.56;5095323;28;20040;-74
2021/01/24 03:57:33;;;;;;;4.55;2.72;;;;;;;-0.21;83.17;94570.47;5097127;28;20048;-74
2021/01/24 03:59:59;;;;;;;6.07;3.00;;;;;;;-0.22;83.37;94576.63;5096589;28;20044;-74
2021/01/24 04:02:25;;;;;;;3.90;3.08;;;;;;;-0.22;83.89;94581.78;5096499;28;20396;-74
2021/01/24 04:04:51;;;;;;;3.50;2.65;;;;;;;-0.24;83.40;94578.59;5096430;28;20048;-74
2021/01/24 04:07:18;;;;;;;5.05;2.83;;;;;;;-0.30;83.45;94582.75;5096089;28;20059;-74
2021/01/24 04:09:44;;;;;;;3.95;2.90;;;;;;;-0.29;83.89;94575.84;5097344;28;20047;-74
2021/01/24 04:12:10;;;;;;;4.82;3.30;;;;;;;-0.38;83.43;94580.34;5097532;28;20040;-74
2021/01/24 04:14:37;;;;;;;3.58;2.63;;;;;;;-0.42;83.56;94572.25;5095766;28;20044;-74
2021/01/24 04:17:04;;;;;;;4.63;2.85;;;;;;;-0.43;83.74;94575.00;5078744;28;20051;-74
2021/01/24 04:19:30;;;;;;;4.00;2.70;;;;;;;-0.44;83.20;94583.72;5097735;28;20119;-74
2021/01/24 04:21:56;;;;;;;4.22;2.60;;;;;;;-0.49;82.01;94583.50;5096208;28;20056;-74
2021/01/24 04:24:23;;;;;;;3.53;2.85;;;;;;;-0.56;82.51;94587.84;5096133;28;20051;-74
2021/01/24 04:26:52;;;;;;;4.03;2.78;;;;;;;-0.58;82.44;94595.78;5097215;28;20056;-74
2021/01/24 04:29:19;;;;;;;3.45;2.55;;;;;;;-0.60;82.30;94594.38;5097107;28;20039;-74
2021/01/24 04:31:45;;;;;;;3.97;2.70;;;;;;;-0.61;82.17;94598.72;5096270;28;20504;-74
2021/01/24 04:34:11;;;;;;;4.45;3.00;;;;;;;-0.66;81.62;94599.31;5096184;28;20036;-73
2021/01/24 04:36:39;;;;;;;6.82;3.33;;;;;;;-0.69;81.71;94612.56;5095823;28;20054;-74
2021/01/24 04:39:06;;;;;;;3.90;2.83;;;;;;;-0.71;82.07;94609.41;5096848;28;20040;-74
2021/01/24 04:41:35;;;;;;;4.03;2.70;;;;;;;-0.74;81.13;94612.34;5095464;28;20052;-74
2021/01/24 04:44:06;;;;;;;6.53;3.22;;;;;;;-0.75;81.66;94613.34;5095784;28;20051;-74
2021/01/24 04:46:35;;;;;;;4.00;3.08;;;;;;;-0.75;82.05;94617.69;5095610;28;20056;-74
2021/01/24 04:49:03;;;;;;;4.20;2.75;;;;;;;-0.79;81.61;94619.84;5095628;28;20044;-74
2021/01/24 04:51:29;;;;;;;6.72;3.35;;;;;;;-0.82;81.46;94622.78;5096258;28;20032;-75
2021/01/24 04:53:56;;;;;;;4.93;3.05;;;;;;;-0.86;81.58;94624.16;5095316;28;20040;-74
2021/01/24 04:56:23;;;;;;;3.10;2.50;;;;;;;-0.88;81.22;94632.09;5096809;28;20035;-74
2021/01/24 04:58:54;;;;;;;4.20;2.60;;;;;;;-0.87;81.83;94632.88;5095549;28;20403;-74
2021/01/24 05:01:23;;;;;;;4.22;3.00;;;;;;;-0.85;81.25;94636.06;5096287;28;20457;-74
2021/01/24 05:03:49;;;;;;;3.13;2.53;;;;;;;-0.86;80.31;94637.84;5095378;28;20050;-74
2021/01/24 05:06:16;;;;;;;5.68;3.05;;;;;;;-0.83;81.02;94637.44;5094375;28;20052;-74
2021/01/24 05:08:44;;;;;;;5.15;2.40;;;;;;;-0.84;79.76;94641.03;5095217;28;20052;-74
2021/01/24 05:11:11;;;;;;;3.85;2.50;;;;;;;-0.83;80.49;94634.09;5095474;28;20040;-74
2021/01/24 05:13:37;;;;;;;5.93;2.83;;;;;;;-0.84;79.68;94629.91;5095537;28;20044;-73
2021/01/24 05:16:05;;;;;;;6.00;2.60;;;;;;;-0.87;78.89;94622.59;5078333;28;20028;-74
2021/01/24 05:18:32;;;;;;;7.72;3.08;;;;;;;-0.91;78.57;94626.53;5095925;28;20035;-74
2021/01/24 05:20:59;;;;;;;6.50;2.80;;;;;;;-0.92;79.41;94635.25;5094569;28;20036;-74
2021/01/24 05:23:25;;;;;;;4.63;3.00;;;;;;;-0.91;79.83;94634.25;5094940;28;20487;-74
2021/01/24 05:25:56;;;;;;;5.13;3.17;;;;;;;-0.93;79.83;94636.22;5095809;28;20496;-74
2021/01/24 05:28:27;;;;;;;7.05;4.13;;;;;;;-0.94;78.67;94643.16;5077621;28;20040;-74
2021/01/24 05:31:07;;;;;;;7.00;3.72;;;;;;;-0.93;79.08;94652.44;5096238;28;20055;-75
2021/01/24 05:33:33;;;;;;;5.55;4.05;;;;;;;-0.93;80.32;94662.72;5088384;28;20051;-75
2021/01/24 05:36:05;;;;;;;4.60;3.45;;;;;;;-0.92;80.15;94669.47;5094733;28;20384;-74
2021/01/24 05:38:32;;;;;;;4.20;3.08;;;;;;;-0.91;80.28;94665.13;5094623;28;20048;-73
2021/01/24 05:41:07;;;;;;;7.88;3.28;;;;;;;-0.92;80.65;94660.97;5094358;28;20051;-74
2021/01/24 05:43:44;;;;;;;4.18;3.13;;;;;;;-0.96;80.69;94665.69;5094747;28;20465;-74
2021/01/24 05:46:12;;;;;;;5.65;4.03;;;;;;;-1.00;80.62;94666.28;5094659;28;20044;-74
2021/01/24 05:48:48;;;;;;;5.40;3.97;;;;;;;-1.04;80.96;94676.94;5094638;28;20052;-74
2021/01/24 05:51:16;;;;;;;9.40;3.78;;;;;;;-1.04;80.97;94669.22;5095581;28;20043;-74
2021/01/24 05:53:48;;;;;;;8.10;4.05;;;;;;;-1.04;80.95;94664.06;5095504;28;20039;-74
2021/01/24 05:56:20;;;;;;;7.70;4.00;;;;;;;-1.02;80.28;94671.59;5094724;28;20491;-73
2021/01/24 05:59:00;;;;;;;6.07;3.60;;;;;;;-1.02;80.14;94682.69;5094503;28;20052;-73
2021/01/24 06:01:28;;;;;;;4.82;3.85;;;;;;;-0.99;80.82;94678.13;5084213;28;20037;-73
2021/01/24 06:03:57;;;;;;;6.53;4.10;;;;;;;-0.97;79.90;94678.75;5094215;28;20047;-74
2021/01/24 06:06:24;;;;;;;6.72;4.03;;;;;;;-0.97;79.65;94681.31;5095542;28;20476;-73
2021/01/24 06:08:50;;;;;;;5.32;3.60;;;;;;;-1.00;79.98;94687.63;5093885;28;20035;-74
2021/01/24 06:11:17;;;;;;;6.00;3.63;;;;;;;-1.03;79.57;94688.00;5094855;28;20400;-73
2021/01/24 06:13:48;;;;;;;4.40;3.30;;;;;;;-1.06;79.40;94696.09;5094756;28;20423;-74
2021/01/24 06:16:23;;;;;;;6.00;3.00;;;;;;;-1.07;78.33;94685.03;5094327;28;20388;-73
2021/01/24 06:18:59;;;;;;;4.32;3.13;;;;;;;-1.09;78.17;94701.63;5095081;28;20047;-73
2021/01/24 06:21:30;;;;;;;4.82;3.10;;;;;;;-1.12;78.56;94712.28;5076647;28;20051;-73
2021/01/24 06:24:28;;;;;;;6.28;3.22;;;;;;;-1.15;77.63;94707.53;5076779;28;20032;-74
2021/01/24 06:27:01;;;;;;;8.10;4.20;;;;;;;-1.17;78.64;94710.28;5093850;28;20056;-73
2021/01/24 06:29:29;;;;;;;5.60;3.13;;;;;;;-1.17;78.99;94714.66;5080583;28;20051;-73
2021/01/24 06:31:56;;;;;;;5.45;3.17;;;;;;;-1.16;79.12;94719.59;5094738;28;20035;-73
2021/01/24 06:34:35;;;;;;;5.97;3.50;;;;;;;-1.13;77.80;94721.78;5094537;28;20028;-73
2021/01/24 06:37:13;;;;;;;5.07;3.10;;;;;;;-1.14;77.79;94721.97;5094474;28;20036;-73
2021/01/24 06:39:54;;;;;;;4.38;3.10;;;;;;;-1.13;78.05;94733.88;5094705;28;20472;-74
2021/01/24 06:42:42;;;;;;;5.70;3.30;;;;;;;-1.13;77.73;94757.00;5093598;28;20059;-74
2021/01/24 06:45:26;;;;;;;6.72;3.42;;;;;;;-1.12;77.63;94756.03;5093566;28;20032;-73
2021/01/24 06:47:54;;;;;;;;;;;;;;;-1.10;75.77;94759.19;5093240;28;20036;-74
2021/01/24 06:50:49;;;;;;;5.63;3.13;;;;;;;-1.07;77.62;94767.34;5093376;28;20356;-74
2021/01/24 06:53:18;;;;;;;4.97;3.63;;;;;;;-1.08;78.80;94768.31;5094562;28;20391;-73
2021/01/24 06:56:06;;;;;;;7.90;4.03;;;;;;;-1.09;78.59;94771.88;5094228;28;20032;-74
2021/01/24 06:58:34;;;;;;;6.00;4.00;;;;;;;-1.14;79.35;94773.41;5083211;28;20070;-74
2021/01/24 07:01:24;;;;;;;8.27;4.47;;;;;;;-1.12;79.61;94781.75;5093098;28;20036;-74
2021/01/24 07:06:49;;;;;;;6.13;4.55;;;;;;;-1.12;79.97;94797.97;5086665;28;20054;-74
2021/01/24 07:09:24;;;;;;;6.72;4.28;;;;;;;-1.08;80.30;94806.13;5093529;28;20057;-74
2021/01/24 07:11:51;;;;;;;8.77;4.75;;;;;;;-1.04;80.12;94807.34;5093452;28;20040;-74
2021/01/24 07:14:32;;;;;;;5.22;3.95;;;;;;;-1.07;79.21;94805.94;5093905;28;20031;-74
2021/01/24 07:17:11;;;;;;;6.82;4.20;;;;;;;-1.11;79.56;94809.84;5092685;28;20068;-74
2021/01/24 07:19:56;;;;;;;5.10;4.13;;;;;;;-1.07;79.73;94817.97;5094086;28;20047;-74
2021/01/24 07:22:26;;;;;;;8.05;4.60;;;;;;;-1.00;79.79;94828.34;5085379;28;20472;-74
2021/01/24 07:24:53;;;;;;;7.25;4.03;;;;;;;-0.98;79.53;94819.44;5094442;28;20044;-74
2021/01/24 07:27:22;;;;;;;7.53;4.18;;;;;;;-1.02;79.26;94819.03;5054379;28;20053;-74
2021/01/24 07:29:49;;;;;;;7.10;3.67;;;;;;;-1.01;79.50;94830.09;5052668;28;20040;-73
2021/01/24 07:32:25;;;;;;;5.72;3.65;;;;;;;-0.96;79.33;94832.94;5053464;28;20040;-73
2021/01/24 07:34:53;;;;;;;5.28;4.13;;;;;;;-0.92;79.50;94836.72;5059743;28;20052;-74
2021/01/24 07:37:21;;;;;;;7.35;4.13;;;;;;;-0.87;79.81;94841.31;5052577;28;20053;-74
2021/01/24 07:39:49;;;;;;;7.28;4.10;;;;;;;-0.82;79.74;94838.97;5053207;28;20048;-74
2021/01/24 07:42:17;;;;;;;6.75;4.20;;;;;;;-0.83;79.37;94835.59;5051220;28;20049;-74
2021/01/24 07:44:44;;;;;;;5.80;3.53;;;;;;;-0.85;78.96;94844.50;5053402;28;20036;-73
2021/01/24 07:47:12;;;;;;;6.72;4.25;;;;;;;-0.85;79.22;94853.00;5052886;28;20045;-74
2021/01/24 07:49:39;;;;;;;8.65;4.70;;;;;;;-0.81;79.64;94843.13;5052668;28;20413;-74
2021/01/24 07:52:06;;;;;;;5.75;4.00;;;;;;;-0.83;78.68;94843.31;5052082;28;20049;-74
2021/01/24 07:54:39;;;;;;;8.40;4.25;;;;;;;-0.92;78.54;94841.88;5053021;28;20052;-74
2021/01/24 07:57:07;;;;;;;7.50;4.37;;;;;;;-0.90;79.06;94846.84;5034231;28;20052;-74
2021/01/24 07:59:35;;;;;;;6.05;4.13;;;;;;;-0.85;79.31;94845.28;5052854;28;20279;-73
2021/01/24 08:02:02;;;;;;;6.50;4.70;;;;;;;-0.78;79.45;94850.47;5052351;28;20041;-74
2021/01/24 08:04:29;;;;;;;6.60;3.88;;;;;;;-0.73;79.23;94847.38;5053399;28;20037;-74
2021/01/24 08:06:55;;;;;;;6.38;3.58;;;;;;;-0.72;79.16;94844.56;5053083;28;20373;-74
2021/01/24 08:09:21;;;;;;;6.72;4.10;;;;;;;-0.70;79.22;94850.34;5051210;28;20478;-74
2021/01/24 08:11:49;;;;;;;6.47;3.95;;;;;;;-0.69;78.87;94846.78;5050974;28;20056;-74
2021/01/24 08:14:15;;;;;;;5.30;3.70;;;;;;;-0.65;78.71;94855.75;5052852;28;20048;-74
2021/01/24 08:16:45;;;;;;;8.75;4.95;;;;;;;-0.61;78.86;94845.84;5052317;28;20037;-74
2021/01/24 08:19:16;;;;;;;8.23;4.78;;;;;;;-0.51;78.53;94850.66;5052575;28;20033;-74
2021/01/24 08:21:44;;;;;;;7.20;3.83;;;;;;;-0.39;78.53;94856.09;5052440;28;20045;-74
2021/01/24 08:24:10;;;;;;;7.30;4.13;;;;;;;-0.27;78.34;94855.38;5052480;28;20498;-74
2021/01/24 08:26:37;;;;;;;6.55;4.00;;;;;;;-0.22;78.15;94857.38;5073719;28;20052;-74
2021/01/24 08:29:05;;;;;;;8.15;4.93;;;;;;;-0.24;77.69;94849.84;5074863;28;20040;-74
2021/01/24 08:31:33;;;;;;;8.75;4.90;;;;;;;-0.25;77.86;94857.78;5092115;28;20064;-74
2021/01/24 08:34:00;;;;;;;8.38;4.65;;;;;;;-0.23;77.88;94855.81;5093108;28;20040;-74
2021/01/24 08:36:29;;;;;;;9.65;4.15;;;;;;;-0.24;77.78;94854.22;5074764;28;20039;-74
2021/01/24 08:38:56;;;;;;;6.60;4.15;;;;;;;-0.19;77.54;94858.78;5092355;28;20040;-73
2021/01/24 08:41:31;;;;;;;5.13;3.97;;;;;;;-0.15;76.42;94855.63;5093459;28;20044;-74
2021/01/24 08:44:16;;;;;;;7.25;3.70;;;;;;;-0.13;76.82;94858.81;5083096;28;20167;-73
2021/01/24 08:46:45;;;;;;;6.25;2.95;;;;;;;-0.09;77.03;94860.03;5095892;28;20044;-74
2021/01/24 08:49:18;;;;;;;6.80;3.42;;;;;;;-0.01;76.98;94859.09;5095562;28;20044;-74
2021/01/24 08:51:52;;;;;;;6.20;3.55;;;;;;;0.08;76.78;94855.34;5096065;28;20040;-74
2021/01/24 08:54:21;;;;;;;7.45;4.07;;;;;;;0.19;77.07;94861.75;5095258;28;20384;-74
2021/01/24 08:56:48;;;;;;;5.20;3.17;;;;;;;0.33;77.36;94858.22;5095575;28;20492;-74
2021/01/24 08:59:22;;;;;;;7.60;4.05;;;;;;;0.45;76.08;94866.22;5096577;28;20047;-74
2021/01/24 09:01:51;;;;;;;4.05;3.20;;;;;;;0.46;76.23;94864.41;5096234;28;20456;-74
2021/01/24 09:04:31;;;;;;;6.47;3.38;;;;;;;0.39;75.39;94864.41;5096531;28;20032;-74
2021/01/24 09:07:09;;;;;;;7.05;3.10;;;;;;;0.31;75.32;94867.94;5096761;28;20487;-74
2021/01/24 09:09:41;;;;;;;11.50;4.90;;;;;;;0.29;75.79;94874.28;5095084;28;20044;-74
2021/01/24 09:12:13;;;;;;;8.73;5.68;;;;;;;0.26;76.01;94878.03;5095507;28;20059;-74
2021/01/24 09:14:40;;;;;;;7.60;4.35;;;;;;;0.28;76.00;94875.28;5096146;28;20040;-74
2021/01/24 09:17:15;;;;;;;12.10;6.25;;;;;;;0.34;75.82;94877.09;5096060;28;20031;-74
2021/01/24 09:19:45;;;;;;;23.25;12.85;;;;;;;0.33;75.29;94871.13;5096243;28;20399;-73
2021/01/24 09:22:13;;;;;;;11.93;5.95;;;;;;;0.38;75.48;94884.25;5094244;28;20047;-74
2021/01/24 09:24:40;;;;;;;10.43;6.10;;;;;;;0.45;75.83;94881.69;5094827;28;20412;-74
2021/01/24 09:27:09;;;;;;;6.22;4.00;;;;;;;0.56;75.47;94883.69;5095796;28;20448;-74
2021/01/24 09:29:36;;;;;;;4.72;3.53;;;;;;;0.56;75.40;94877.75;5094662;28;20411;-74
2021/01/24 09:32:04;;;;;;;5.72;4.03;;;;;;;0.53;74.99;94894.41;5095681;28;20400;-74
2021/01/24 09:34:30;;;;;;;4.90;3.72;;;;;;;0.55;74.85;94883.91;5094583;28;20056;-74
2021/01/24 09:36:57;;;;;;;6.07;4.10;;;;;;;0.54;74.38;94890.03;5095440;28;20051;-74
2021/01/24 09:39:23;;;;;;;24.88;15.05;;;;;;;0.56;74.59;94891.44;5094799;28;20044;-74
2021/01/24 09:41:49;;;;;;;5.80;3.22;;;;;;;0.56;74.27;94890.66;5094057;28;20047;-74
2021/01/24 09:44:16;;;;;;;2.63;2.42;;;;;;;0.54;73.75;94895.19;5094596;28;20070;-74
2021/01/24 09:46:42;;;;;;;2.83;2.58;;;;;;;0.52;74.42;94897.19;5094717;28;20056;-74
2021/01/24 09:49:09;;;;;;;6.95;2.63;;;;;;;0.47;73.94;94904.72;5094927;28;20040;-74
2021/01/24 09:51:36;;;;;;;4.43;2.42;;;;;;;0.37;73.59;94910.22;5094149;28;20051;-74
2021/01/24 09:54:03;;;;;;;3.55;2.22;;;;;;;0.33;74.08;94909.00;5093708;28;20056;-74
2021/01/24 09:56:29;;;;;;;4.03;2.05;;;;;;;0.32;74.02;94912.59;5077200;28;20392;-74
2021/01/24 09:58:57;;;;;;;2.30;1.95;;;;;;;0.36;73.75;94916.38;5094087;28;20047;-74
2021/01/24 10:01:23;;;;;;;4.13;2.05;;;;;;;0.37;73.67;94916.16;5093558;28;20495;-74
2021/01/24 10:03:51;;;;;;;4.38;2.28;;;;;;;0.44;74.21;94921.34;5094975;28;20040;-74
2021/01/24 10:06:18;;;;;;;3.03;2.25;;;;;;;0.50;73.68;94915.41;5095077;28;20491;-73
2021/01/24 10:08:45;;;;;;;2.67;1.85;;;;;;;0.56;73.54;94919.81;5093829;28;20123;-74
2021/01/24 10:11:12;;;;;;;2.72;1.92;;;;;;;0.56;73.06;94922.38;5093912;28;20051;-73
2021/01/24 10:13:39;;;;;;;4.25;1.98;;;;;;;0.58;72.89;94922.97;5094061;28;20055;-74
2021/01/24 10:16:07;;;;;;;3.30;1.80;;;;;;;0.58;72.50;94929.94;5093445;28;20067;-73
2021/01/24 10:18:33;;;;;;;3.58;1.80;;;;;;;0.60;72.65;94931.31;5094778;28;20051;-73
2021/01/24 10:21:00;;;;;;;3.15;1.75;;;;;;;0.61;72.41;94929.56;5093743;28;20050;-74
2021/01/24 10:23:26;;;;;;;2.30;1.95;;;;;;;0.58;72.05;94928.16;5094075;28;20054;-74
2021/01/24 10:25:54;;;;;;;4.57;2.60;;;;;;;0.71;72.42;94936.91;5093738;28;20052;-74
2021/01/24 10:28:21;;;;;;;4.00;1.67;;;;;;;0.87;71.66;94934.00;5094813;28;20048;-74
2021/01/24 10:30:48;;;;;;;3.53;1.85;;;;;;;0.88;71.17;94938.16;5094551;28;20047;-73
2021/01/24 10:33:15;;;;;;;3.95;2.10;;;;;;;0.88;71.33;94942.53;5094190;28;20047;-74
2021/01/24 10:35:42;;;;;;;3.97;1.92;;;;;;;0.85;70.91;94935.19;5094198;28;20498;-74
2021/01/24 10:38:09;;;;;;;2.92;1.70;;;;;;;0.86;70.57;94937.59;5094124;28;20036;-74
2021/01/24 10:40:36;;;;;;;5.55;2.78;;;;;;;0.99;70.44;94942.78;5094489;28;20035;-74
2021/01/24 10:43:06;;;;;;;2.13;1.60;;;;;;;0.99;67.86;94927.28;5093616;28;20055;-73
2021/01/24 10:45:33;;;;;;;3.17;1.80;;;;;;;1.06;69.82;94942.78;5092720;28;20416;-74
2021/01/24 10:48:04;;;;;;;2.92;1.55;;;;;;;1.08;68.85;94933.06;5094789;28;20040;-74
2021/01/24 10:50:31;;;;;;;2.60;1.58;;;;;;;1.18;69.55;94948.19;5075502;28;20063;-74
2021/01/24 10:52:57;;;;;;;2.05;1.70;;;;;;;1.39;69.41;94949.81;5093659;28;20036;-74
2021/01/24 10:55:24;;;;;;;4.80;1.45;;;;;;;1.50;69.32;94951.00;5094124;28;20377;-74
2021/01/24 10:57:51;;;;;;;3.05;1.73;;;;;;;1.55;69.03;94944.22;5092860;28;20048;-74
2021/01/24 11:00:18;;;;;;;2.53;1.92;;;;;;;1.65;69.14;94954.19;5093426;28;20043;-74
2021/01/24 11:02:44;;;;;;;83.85;55.95;;;;;;;1.68;68.13;94955.56;5093076;28;20392;-74
2021/01/24 11:05:10;;;;;;;55.88;49.95;;;;;;;1.65;68.74;94963.72;5075186;28;20036;-74
2021/01/24 11:07:37;;;;;;;5.90;2.25;;;;;;;1.50;67.81;94971.66;5092198;28;20040;-74
2021/01/24 11:10:08;;;;;;;4.32;1.60;;;;;;;1.25;66.50;94961.09;5093665;28;20043;-74
2021/01/24 11:12:34;;;;;;;3.85;1.90;;;;;;;1.15;68.19;94979.53;5092640;28;20119;-74
2021/01/24 11:15:00;;;;;;;3.00;1.70;;;;;;;1.09;67.95;94980.31;5092863;28;20396;-74
2021/01/24 11:17:27;;;;;;;8.23;2.10;;;;;;;1.10;69.00;94984.50;5093734;28;20052;-74
2021/01/24 11:19:53;;;;;;;3.50;1.88;;;;;;;1.08;68.92;94984.69;5093532;28;20039;-73
2021/01/24 11:22:21;;;;;;;7.70;2.58;;;;;;;1.05;68.72;94979.09;5093546;28;20028;-73
2021/01/24 11:24:47;;;;;;;2.40;1.63;;;;;;;0.96;67.85;94981.88;5093420;28;20043;-73
2021/01/24 11:27:14;;;;;;;2.10;1.90;;;;;;;0.91;67.91;94988.63;5092257;28;20052;-73
2021/01/24 11:29:42;;;;;;;4.53;1.98;;;;;;;0.86;68.12;94988.38;5092389;28;20048;-73
2021/01/24 11:32:09;;;;;;;3.17;1.70;;;;;;;0.79;67.84;94996.09;5092083;28;20052;-73
2021/01/24 11:34:37;;;;;;;5.50;2.83;;;;;;;0.74;67.83;95001.06;5092835;28;20040;-73
2021/01/24 11:37:04;;;;;;;3.38;2.25;;;;;;;0.78;68.33;95007.44;5092793;28;20047;-73
2021/01/24 11:39:30;;;;;;;40.97;37.08;;;;;;;0.78;67.53;94997.09;5092479;28;20488;-73
2021/01/24 11:41:57;;;;;;;6.40;2.88;;;;;;;0.78;67.27;94994.53;5093593;28;20487;-73
2021/01/24 11:44:24;;;;;;;3.17;1.77;;;;;;;0.80;67.77;95008.81;5092611;28;20055;-73
2021/01/24 11:46:51;;;;;;;2.88;1.85;;;;;;;0.83;67.94;94999.88;5092781;28;20400;-74
2021/01/24 11:49:18;;;;;;;2.70;1.60;;;;;;;0.84;67.86;95003.25;5093889;28;20051;-73